sensor_id;sensor_type;location;lat;lon;timestamp;P1;durP1;ratioP1;P2;durP2;ratioP2
72611;SDS011;60655;52.182;4.474;2022-12-11T00:01:52;38.47;;;15.32;;
72611;SDS011;60655;52.182;4.474;2022-12-11T00:03:53;37.35;;;15.23;;
72611;SDS011;60655;52.182;4.474;2022-12-11T00:05:54;38.42;;;14.18;;
72611;SDS011;60655;52.182;4.474;2022-12-11T00:07:55;34.03;;;14.35;;
72611;SDS011;60655;52.182;4.474;2022-12-11T00:09:56;36.33;;;14.63;;
72611;SDS011;60655;52.182;4.474;2022-12-11T00:13:58;41.63;;;15.63;;
72611;SDS011;60655;52.182;4.474;2022-12-11T00:15:59;33.67;;;14.93;;
72611;SDS011;60655;52.182;4.474;2022-12-11T00:18:00;36.03;;;15.50;;
72611;SDS011;60655;52.182;4.474;2022-12-11T00:20:01;39.33;;;15.50;;
72611;SDS011;60655;52.182;4.474;2022-12-11T00:22:03;36.88;;;15.23;;
72611;SDS011;60655;52.182;4.474;2022-12-11T00:24:04;35.00;;;14.13;;
72611;SDS011;60655;52.182;4.474;2022-12-11T00:26:06;35.05;;;15.38;;
72611;SDS011;60655;52.182;4.474;2022-12-11T00:28:09;36.28;;;15.63;;
72611;SDS011;60655;52.182;4.474;2022-12-11T00:30:11;34.53;;;14.55;;
72611;SDS011;60655;52.182;4.474;2022-12-11T00:32:12;36.72;;;16.25;;
72611;SDS011;60655;52.182;4.474;2022-12-11T00:34:13;35.88;;;14.52;;
72611;SDS011;60655;52.182;4.474;2022-12-11T00:36:18;37.78;;;15.18;;
72611;SDS011;60655;52.182;4.474;2022-12-11T00:38:21;36.40;;;15.75;;
72611;SDS011;60655;52.182;4.474;2022-12-11T00:40:22;38.28;;;16.27;;
72611;SDS011;60655;52.182;4.474;2022-12-11T00:42:23;38.10;;;15.98;;
72611;SDS011;60655;52.182;4.474;2022-12-11T00:44:24;36.40;;;15.52;;
72611;SDS011;60655;52.182;4.474;2022-12-11T00:48:25;33.38;;;15.18;;
72611;SDS011;60655;52.182;4.474;2022-12-11T00:50:26;35.05;;;15.70;;
72611;SDS011;60655;52.182;4.474;2022-12-11T00:52:27;43.78;;;16.25;;
72611;SDS011;60655;52.182;4.474;2022-12-11T00:54:28;39.53;;;14.80;;
72611;SDS011;60655;52.182;4.474;2022-12-11T00:56:29;37.03;;;16.27;;
72611;SDS011;60655;52.182;4.474;2022-12-11T00:58:30;40.28;;;15.43;;
72611;SDS011;60655;52.182;4.474;2022-12-11T01:00:31;36.47;;;15.68;;
72611;SDS011;60655;52.182;4.474;2022-12-11T01:02:32;34.35;;;14.32;;
72611;SDS011;60655;52.182;4.474;2022-12-11T01:04:34;34.17;;;14.18;;
72611;SDS011;60655;52.182;4.474;2022-12-11T01:06:36;38.70;;;14.98;;
72611;SDS011;60655;52.182;4.474;2022-12-11T01:08:38;34.33;;;14.07;;
72611;SDS011;60655;52.182;4.474;2022-12-11T01:10:39;32.20;;;13.50;;
72611;SDS011;60655;52.182;4.474;2022-12-11T01:12:40;32.72;;;14.40;;
72611;SDS011;60655;52.182;4.474;2022-12-11T01:14:41;30.70;;;13.10;;
72611;SDS011;60655;52.182;4.474;2022-12-11T01:16:42;32.60;;;15.18;;
72611;SDS011;60655;52.182;4.474;2022-12-11T01:18:43;29.63;;;13.30;;
72611;SDS011;60655;52.182;4.474;2022-12-11T01:20:44;27.75;;;12.57;;
72611;SDS011;60655;52.182;4.474;2022-12-11T01:22:45;29.75;;;14.10;;
72611;SDS011;60655;52.182;4.474;2022-12-11T01:24:46;32.60;;;14.15;;
72611;SDS011;60655;52.182;4.474;2022-12-11T01:26:47;27.27;;;12.82;;
72611;SDS011;60655;52.182;4.474;2022-12-11T01:28:48;26.38;;;12.05;;
72611;SDS011;60655;52.182;4.474;2022-12-11T01:30:50;26.15;;;12.13;;
72611;SDS011;60655;52.182;4.474;2022-12-11T01:32:51;31.05;;;12.60;;
72611;SDS011;60655;52.182;4.474;2022-12-11T01:34:52;25.67;;;11.98;;
72611;SDS011;60655;52.182;4.474;2022-12-11T01:36:54;25.33;;;11.80;;
72611;SDS011;60655;52.182;4.474;2022-12-11T01:38:55;26.45;;;12.20;;
72611;SDS011;60655;52.182;4.474;2022-12-11T01:40:56;24.58;;;11.85;;
72611;SDS011;60655;52.182;4.474;2022-12-11T01:42:57;24.10;;;11.63;;
72611;SDS011;60655;52.182;4.474;2022-12-11T01:47:34;24.50;;;10.68;;
72611;SDS011;60655;52.182;4.474;2022-12-11T01:49:35;23.60;;;11.85;;
72611;SDS011;60655;52.182;4.474;2022-12-11T01:51:55;25.40;;;12.32;;
72611;SDS011;60655;52.182;4.474;2022-12-11T01:53:59;22.25;;;9.75;;
72611;SDS011;60655;52.182;4.474;2022-12-11T01:56:05;20.80;;;9.73;;
72611;SDS011;60655;52.182;4.474;2022-12-11T01:58:08;24.60;;;10.65;;
72611;SDS011;60655;52.182;4.474;2022-12-11T02:00:11;22.58;;;9.98;;
72611;SDS011;60655;52.182;4.474;2022-12-11T02:04:26;25.38;;;11.70;;
72611;SDS011;60655;52.182;4.474;2022-12-11T02:06:47;26.75;;;11.95;;
72611;SDS011;60655;52.182;4.474;2022-12-11T02:08:50;23.25;;;10.63;;
72611;SDS011;60655;52.182;4.474;2022-12-11T02:11:05;27.92;;;12.35;;
72611;SDS011;60655;52.182;4.474;2022-12-11T02:13:25;26.10;;;12.15;;
72611;SDS011;60655;52.182;4.474;2022-12-11T02:15:34;25.25;;;12.10;;
72611;SDS011;60655;52.182;4.474;2022-12-11T02:18:06;21.90;;;10.95;;
72611;SDS011;60655;52.182;4.474;2022-12-11T02:25:25;21.38;;;9.32;;
72611;SDS011;60655;52.182;4.474;2022-12-11T02:27:46;16.98;;;8.40;;
72611;SDS011;60655;52.182;4.474;2022-12-11T02:30:08;20.83;;;9.25;;
72611;SDS011;60655;52.182;4.474;2022-12-11T02:32:18;19.05;;;8.90;;
72611;SDS011;60655;52.182;4.474;2022-12-11T02:36:42;18.33;;;8.15;;
72611;SDS011;60655;52.182;4.474;2022-12-11T02:38:46;20.17;;;8.48;;
72611;SDS011;60655;52.182;4.474;2022-12-11T02:40:51;17.48;;;7.88;;
72611;SDS011;60655;52.182;4.474;2022-12-11T02:42:55;20.88;;;9.30;;
72611;SDS011;60655;52.182;4.474;2022-12-11T02:45:00;18.40;;;8.15;;
72611;SDS011;60655;52.182;4.474;2022-12-11T02:47:04;17.58;;;8.13;;
72611;SDS011;60655;52.182;4.474;2022-12-11T02:49:12;16.55;;;7.90;;
72611;SDS011;60655;52.182;4.474;2022-12-11T02:51:16;23.67;;;9.90;;
72611;SDS011;60655;52.182;4.474;2022-12-11T02:53:22;19.70;;;8.60;;
72611;SDS011;60655;52.182;4.474;2022-12-11T02:55:26;23.25;;;10.10;;
72611;SDS011;60655;52.182;4.474;2022-12-11T02:59:44;29.25;;;11.80;;
72611;SDS011;60655;52.182;4.474;2022-12-11T03:01:46;27.35;;;11.23;;
72611;SDS011;60655;52.182;4.474;2022-12-11T03:05:48;28.75;;;10.75;;
72611;SDS011;60655;52.182;4.474;2022-12-11T03:09:50;25.73;;;10.30;;
72611;SDS011;60655;52.182;4.474;2022-12-11T03:11:51;30.33;;;12.40;;
72611;SDS011;60655;52.182;4.474;2022-12-11T03:18:17;29.73;;;12.10;;
72611;SDS011;60655;52.182;4.474;2022-12-11T03:20:24;30.42;;;12.48;;
72611;SDS011;60655;52.182;4.474;2022-12-11T03:22:48;33.97;;;12.35;;
72611;SDS011;60655;52.182;4.474;2022-12-11T03:24:54;29.50;;;11.40;;
72611;SDS011;60655;52.182;4.474;2022-12-11T03:27:02;31.58;;;13.88;;
72611;SDS011;60655;52.182;4.474;2022-12-11T03:29:29;32.90;;;12.77;;
72611;SDS011;60655;52.182;4.474;2022-12-11T03:33:57;32.25;;;12.73;;
72611;SDS011;60655;52.182;4.474;2022-12-11T03:36:06;31.55;;;11.93;;
72611;SDS011;60655;52.182;4.474;2022-12-11T03:38:14;28.98;;;12.93;;
72611;SDS011;60655;52.182;4.474;2022-12-11T03:40:18;30.02;;;11.80;;
72611;SDS011;60655;52.182;4.474;2022-12-11T03:42:22;31.73;;;12.52;;
72611;SDS011;60655;52.182;4.474;2022-12-11T03:44:25;28.05;;;11.80;;
72611;SDS011;60655;52.182;4.474;2022-12-11T03:46:32;33.28;;;13.15;;
72611;SDS011;60655;52.182;4.474;2022-12-11T03:48:37;34.30;;;12.07;;
72611;SDS011;60655;52.182;4.474;2022-12-11T03:50:41;28.55;;;10.43;;
72611;SDS011;60655;52.182;4.474;2022-12-11T03:52:43;29.15;;;11.75;;
72611;SDS011;60655;52.182;4.474;2022-12-11T03:54:46;31.00;;;11.43;;
72611;SDS011;60655;52.182;4.474;2022-12-11T03:56:50;26.58;;;10.70;;
72611;SDS011;60655;52.182;4.474;2022-12-11T03:58:55;28.20;;;11.88;;
72611;SDS011;60655;52.182;4.474;2022-12-11T04:02:57;25.08;;;10.00;;
72611;SDS011;60655;52.182;4.474;2022-12-11T04:05:13;28.13;;;11.50;;
72611;SDS011;60655;52.182;4.474;2022-12-11T04:07:14;25.38;;;10.38;;
72611;SDS011;60655;52.182;4.474;2022-12-11T04:09:15;31.13;;;11.95;;
72611;SDS011;60655;52.182;4.474;2022-12-11T04:11:16;26.13;;;11.50;;
72611;SDS011;60655;52.182;4.474;2022-12-11T04:13:35;29.90;;;11.60;;
72611;SDS011;60655;52.182;4.474;2022-12-11T04:15:37;29.98;;;11.13;;
72611;SDS011;60655;52.182;4.474;2022-12-11T04:17:39;26.80;;;10.63;;
72611;SDS011;60655;52.182;4.474;2022-12-11T04:19:58;24.70;;;10.05;;
72611;SDS011;60655;52.182;4.474;2022-12-11T04:22:18;31.25;;;11.00;;
72611;SDS011;60655;52.182;4.474;2022-12-11T04:24:37;27.15;;;10.35;;
72611;SDS011;60655;52.182;4.474;2022-12-11T04:26:38;31.77;;;12.10;;
72611;SDS011;60655;52.182;4.474;2022-12-11T04:28:40;25.23;;;10.23;;
72611;SDS011;60655;52.182;4.474;2022-12-11T04:30:46;27.38;;;11.73;;
72611;SDS011;60655;52.182;4.474;2022-12-11T04:32:48;29.98;;;11.95;;
72611;SDS011;60655;52.182;4.474;2022-12-11T04:34:50;28.60;;;10.32;;
72611;SDS011;60655;52.182;4.474;2022-12-11T04:36:51;30.40;;;12.43;;
72611;SDS011;60655;52.182;4.474;2022-12-11T04:38:52;29.88;;;10.80;;
72611;SDS011;60655;52.182;4.474;2022-12-11T04:40:57;26.35;;;10.60;;
72611;SDS011;60655;52.182;4.474;2022-12-11T04:42:59;26.23;;;10.35;;
72611;SDS011;60655;52.182;4.474;2022-12-11T04:45:00;28.08;;;10.25;;
72611;SDS011;60655;52.182;4.474;2022-12-11T04:47:01;24.30;;;9.55;;
72611;SDS011;60655;52.182;4.474;2022-12-11T04:49:02;25.42;;;11.32;;
72611;SDS011;60655;52.182;4.474;2022-12-11T04:51:03;24.02;;;8.48;;
72611;SDS011;60655;52.182;4.474;2022-12-11T04:53:05;22.13;;;9.32;;
72611;SDS011;60655;52.182;4.474;2022-12-11T04:55:06;24.25;;;8.68;;
72611;SDS011;60655;52.182;4.474;2022-12-11T04:57:08;24.80;;;10.00;;
72611;SDS011;60655;52.182;4.474;2022-12-11T04:59:09;23.58;;;9.40;;
72611;SDS011;60655;52.182;4.474;2022-12-11T05:01:11;23.48;;;9.30;;
72611;SDS011;60655;52.182;4.474;2022-12-11T05:03:14;22.73;;;9.48;;
72611;SDS011;60655;52.182;4.474;2022-12-11T05:07:16;22.20;;;8.23;;
72611;SDS011;60655;52.182;4.474;2022-12-11T05:09:17;20.00;;;7.30;;
72611;SDS011;60655;52.182;4.474;2022-12-11T05:13:19;20.52;;;8.05;;
72611;SDS011;60655;52.182;4.474;2022-12-11T05:15:22;21.33;;;7.80;;
72611;SDS011;60655;52.182;4.474;2022-12-11T05:17:23;21.90;;;8.65;;
72611;SDS011;60655;52.182;4.474;2022-12-11T05:21:25;22.67;;;7.30;;
72611;SDS011;60655;52.182;4.474;2022-12-11T05:23:26;22.33;;;7.82;;
72611;SDS011;60655;52.182;4.474;2022-12-11T05:25:27;18.55;;;7.85;;
72611;SDS011;60655;52.182;4.474;2022-12-11T05:27:28;18.70;;;7.55;;
72611;SDS011;60655;52.182;4.474;2022-12-11T05:29:29;22.33;;;9.13;;
72611;SDS011;60655;52.182;4.474;2022-12-11T05:31:30;22.45;;;7.97;;
72611;SDS011;60655;52.182;4.474;2022-12-11T05:33:31;22.48;;;9.05;;
72611;SDS011;60655;52.182;4.474;2022-12-11T05:35:32;22.38;;;9.25;;
72611;SDS011;60655;52.182;4.474;2022-12-11T05:37:33;20.52;;;8.80;;
72611;SDS011;60655;52.182;4.474;2022-12-11T05:39:34;20.65;;;7.47;;
72611;SDS011;60655;52.182;4.474;2022-12-11T05:41:35;25.35;;;9.80;;
72611;SDS011;60655;52.182;4.474;2022-12-11T05:43:36;23.05;;;8.60;;
72611;SDS011;60655;52.182;4.474;2022-12-11T05:45:37;23.05;;;8.30;;
72611;SDS011;60655;52.182;4.474;2022-12-11T05:49:39;20.65;;;8.10;;
72611;SDS011;60655;52.182;4.474;2022-12-11T05:51:40;18.17;;;7.75;;
72611;SDS011;60655;52.182;4.474;2022-12-11T05:53:42;20.90;;;7.40;;
72611;SDS011;60655;52.182;4.474;2022-12-11T05:55:44;22.40;;;8.68;;
72611;SDS011;60655;52.182;4.474;2022-12-11T05:57:47;22.73;;;7.85;;
72611;SDS011;60655;52.182;4.474;2022-12-11T05:59:48;22.95;;;9.38;;
72611;SDS011;60655;52.182;4.474;2022-12-11T06:01:48;22.08;;;8.45;;
72611;SDS011;60655;52.182;4.474;2022-12-11T06:03:50;26.75;;;8.48;;
72611;SDS011;60655;52.182;4.474;2022-12-11T06:05:51;24.73;;;8.90;;
72611;SDS011;60655;52.182;4.474;2022-12-11T06:07:52;21.45;;;8.88;;
72611;SDS011;60655;52.182;4.474;2022-12-11T06:09:53;22.17;;;8.15;;
72611;SDS011;60655;52.182;4.474;2022-12-11T06:11:54;21.85;;;9.15;;
72611;SDS011;60655;52.182;4.474;2022-12-11T06:13:55;27.77;;;9.85;;
72611;SDS011;60655;52.182;4.474;2022-12-11T06:16:03;21.25;;;8.45;;
72611;SDS011;60655;52.182;4.474;2022-12-11T06:18:05;20.35;;;7.85;;
72611;SDS011;60655;52.182;4.474;2022-12-11T06:20:06;21.83;;;8.70;;
72611;SDS011;60655;52.182;4.474;2022-12-11T06:22:07;18.67;;;7.60;;
72611;SDS011;60655;52.182;4.474;2022-12-11T06:24:09;22.13;;;8.85;;
72611;SDS011;60655;52.182;4.474;2022-12-11T06:26:10;21.70;;;8.27;;
72611;SDS011;60655;52.182;4.474;2022-12-11T06:28:12;22.48;;;8.32;;
72611;SDS011;60655;52.182;4.474;2022-12-11T06:30:13;19.25;;;8.20;;
72611;SDS011;60655;52.182;4.474;2022-12-11T06:32:14;19.90;;;7.45;;
72611;SDS011;60655;52.182;4.474;2022-12-11T06:34:14;22.08;;;8.65;;
72611;SDS011;60655;52.182;4.474;2022-12-11T06:36:16;20.35;;;7.97;;
72611;SDS011;60655;52.182;4.474;2022-12-11T06:38:19;21.98;;;8.68;;
72611;SDS011;60655;52.182;4.474;2022-12-11T06:40:20;21.33;;;8.57;;
72611;SDS011;60655;52.182;4.474;2022-12-11T06:42:21;21.85;;;8.93;;
72611;SDS011;60655;52.182;4.474;2022-12-11T06:44:22;22.08;;;8.63;;
72611;SDS011;60655;52.182;4.474;2022-12-11T06:46:24;22.48;;;8.60;;
72611;SDS011;60655;52.182;4.474;2022-12-11T06:48:25;22.48;;;8.25;;
72611;SDS011;60655;52.182;4.474;2022-12-11T06:50:26;19.23;;;8.38;;
72611;SDS011;60655;52.182;4.474;2022-12-11T06:52:27;22.23;;;8.18;;
72611;SDS011;60655;52.182;4.474;2022-12-11T06:54:29;18.55;;;7.95;;
72611;SDS011;60655;52.182;4.474;2022-12-11T06:56:30;23.25;;;8.57;;
72611;SDS011;60655;52.182;4.474;2022-12-11T06:58:32;19.52;;;7.88;;
72611;SDS011;60655;52.182;4.474;2022-12-11T07:00:35;19.95;;;7.97;;
72611;SDS011;60655;52.182;4.474;2022-12-11T07:02:36;19.30;;;7.63;;
72611;SDS011;60655;52.182;4.474;2022-12-11T07:04:37;21.58;;;8.90;;
72611;SDS011;60655;52.182;4.474;2022-12-11T07:06:38;21.83;;;7.72;;
72611;SDS011;60655;52.182;4.474;2022-12-11T07:08:39;21.30;;;7.93;;
72611;SDS011;60655;52.182;4.474;2022-12-11T07:12:41;22.98;;;8.35;;
72611;SDS011;60655;52.182;4.474;2022-12-11T07:14:42;24.80;;;8.30;;
72611;SDS011;60655;52.182;4.474;2022-12-11T07:16:43;22.17;;;8.55;;
72611;SDS011;60655;52.182;4.474;2022-12-11T07:20:49;20.60;;;7.82;;
72611;SDS011;60655;52.182;4.474;2022-12-11T07:22:50;20.35;;;7.82;;
72611;SDS011;60655;52.182;4.474;2022-12-11T07:24:51;20.88;;;8.10;;
72611;SDS011;60655;52.182;4.474;2022-12-11T07:26:52;19.48;;;7.75;;
72611;SDS011;60655;52.182;4.474;2022-12-11T07:28:55;19.98;;;7.82;;
72611;SDS011;60655;52.182;4.474;2022-12-11T07:30:57;23.60;;;8.90;;
72611;SDS011;60655;52.182;4.474;2022-12-11T07:32:58;20.75;;;8.07;;
72611;SDS011;60655;52.182;4.474;2022-12-11T07:35:00;23.92;;;8.35;;
72611;SDS011;60655;52.182;4.474;2022-12-11T07:37:00;22.85;;;8.57;;
72611;SDS011;60655;52.182;4.474;2022-12-11T07:39:01;21.48;;;8.75;;
72611;SDS011;60655;52.182;4.474;2022-12-11T07:41:04;21.73;;;7.97;;
72611;SDS011;60655;52.182;4.474;2022-12-11T07:43:07;22.83;;;7.85;;
72611;SDS011;60655;52.182;4.474;2022-12-11T07:45:08;21.00;;;8.52;;
72611;SDS011;60655;52.182;4.474;2022-12-11T07:47:09;24.58;;;8.30;;
72611;SDS011;60655;52.182;4.474;2022-12-11T07:49:10;19.63;;;7.90;;
72611;SDS011;60655;52.182;4.474;2022-12-11T07:53:20;23.33;;;8.65;;
72611;SDS011;60655;52.182;4.474;2022-12-11T07:55:21;23.95;;;8.27;;
72611;SDS011;60655;52.182;4.474;2022-12-11T07:57:21;23.02;;;8.82;;
72611;SDS011;60655;52.182;4.474;2022-12-11T07:59:22;27.67;;;9.52;;
72611;SDS011;60655;52.182;4.474;2022-12-11T08:01:24;21.45;;;8.30;;
72611;SDS011;60655;52.182;4.474;2022-12-11T08:03:27;24.48;;;8.93;;
72611;SDS011;60655;52.182;4.474;2022-12-11T08:05:28;22.52;;;8.07;;
72611;SDS011;60655;52.182;4.474;2022-12-11T08:07:29;23.67;;;8.68;;
72611;SDS011;60655;52.182;4.474;2022-12-11T08:09:30;23.25;;;8.65;;
72611;SDS011;60655;52.182;4.474;2022-12-11T08:13:32;23.88;;;8.63;;
72611;SDS011;60655;52.182;4.474;2022-12-11T08:15:33;27.30;;;8.77;;
72611;SDS011;60655;52.182;4.474;2022-12-11T08:17:35;26.10;;;8.75;;
72611;SDS011;60655;52.182;4.474;2022-12-11T08:19:36;25.13;;;8.88;;
72611;SDS011;60655;52.182;4.474;2022-12-11T08:21:37;23.52;;;9.27;;
72611;SDS011;60655;52.182;4.474;2022-12-11T08:23:38;25.52;;;9.32;;
72611;SDS011;60655;52.182;4.474;2022-12-11T08:25:39;23.65;;;8.65;;
72611;SDS011;60655;52.182;4.474;2022-12-11T08:27:40;23.38;;;9.50;;
72611;SDS011;60655;52.182;4.474;2022-12-11T08:29:41;28.88;;;9.57;;
72611;SDS011;60655;52.182;4.474;2022-12-11T08:31:43;24.95;;;10.40;;
72611;SDS011;60655;52.182;4.474;2022-12-11T08:33:44;30.27;;;9.98;;
72611;SDS011;60655;52.182;4.474;2022-12-11T08:35:45;23.60;;;8.57;;
72611;SDS011;60655;52.182;4.474;2022-12-11T08:37:46;24.45;;;9.30;;
72611;SDS011;60655;52.182;4.474;2022-12-11T08:39:47;22.17;;;9.68;;
72611;SDS011;60655;52.182;4.474;2022-12-11T08:41:48;26.90;;;8.75;;
72611;SDS011;60655;52.182;4.474;2022-12-11T08:43:49;26.60;;;9.32;;
72611;SDS011;60655;52.182;4.474;2022-12-11T08:45:54;21.23;;;7.68;;
72611;SDS011;60655;52.182;4.474;2022-12-11T08:47:56;25.13;;;8.68;;
72611;SDS011;60655;52.182;4.474;2022-12-11T08:49:58;23.98;;;8.27;;
72611;SDS011;60655;52.182;4.474;2022-12-11T08:51:59;21.00;;;7.55;;
72611;SDS011;60655;52.182;4.474;2022-12-11T08:56:05;20.55;;;7.85;;
72611;SDS011;60655;52.182;4.474;2022-12-11T08:58:09;19.40;;;7.10;;
72611;SDS011;60655;52.182;4.474;2022-12-11T09:00:10;22.25;;;8.07;;
72611;SDS011;60655;52.182;4.474;2022-12-11T09:02:12;20.90;;;8.52;;
72611;SDS011;60655;52.182;4.474;2022-12-11T09:04:13;21.63;;;8.18;;
72611;SDS011;60655;52.182;4.474;2022-12-11T09:08:17;22.05;;;7.93;;
72611;SDS011;60655;52.182;4.474;2022-12-11T09:12:19;16.90;;;7.13;;
72611;SDS011;60655;52.182;4.474;2022-12-11T09:14:20;20.60;;;8.20;;
72611;SDS011;60655;52.182;4.474;2022-12-11T09:16:22;21.35;;;7.78;;
72611;SDS011;60655;52.182;4.474;2022-12-11T09:18:25;19.63;;;7.95;;
72611;SDS011;60655;52.182;4.474;2022-12-11T09:20:26;22.45;;;8.15;;
72611;SDS011;60655;52.182;4.474;2022-12-11T09:22:27;20.50;;;8.00;;
72611;SDS011;60655;52.182;4.474;2022-12-11T09:24:28;22.58;;;8.35;;
72611;SDS011;60655;52.182;4.474;2022-12-11T09:26:29;21.98;;;7.80;;
72611;SDS011;60655;52.182;4.474;2022-12-11T09:28:30;23.25;;;7.80;;
72611;SDS011;60655;52.182;4.474;2022-12-11T09:30:32;21.60;;;8.38;;
72611;SDS011;60655;52.182;4.474;2022-12-11T09:34:33;21.98;;;7.90;;
72611;SDS011;60655;52.182;4.474;2022-12-11T09:36:34;18.67;;;7.18;;
72611;SDS011;60655;52.182;4.474;2022-12-11T09:38:38;22.15;;;8.23;;
72611;SDS011;60655;52.182;4.474;2022-12-11T09:44:53;18.85;;;7.40;;
72611;SDS011;60655;52.182;4.474;2022-12-11T09:46:58;23.23;;;8.48;;
72611;SDS011;60655;52.182;4.474;2022-12-11T09:48:59;20.83;;;8.93;;
72611;SDS011;60655;52.182;4.474;2022-12-11T09:51:04;17.55;;;6.88;;
72611;SDS011;60655;52.182;4.474;2022-12-11T09:53:17;23.48;;;8.02;;
72611;SDS011;60655;52.182;4.474;2022-12-11T09:55:28;20.45;;;7.80;;
72611;SDS011;60655;52.182;4.474;2022-12-11T10:02:30;19.13;;;8.00;;
72611;SDS011;60655;52.182;4.474;2022-12-11T10:05:20;22.55;;;8.43;;
72611;SDS011;60655;52.182;4.474;2022-12-11T10:09:55;20.17;;;7.97;;
72611;SDS011;60655;52.182;4.474;2022-12-11T10:14:12;21.25;;;7.80;;
72611;SDS011;60655;52.182;4.474;2022-12-11T10:16:24;18.58;;;7.07;;
72611;SDS011;60655;52.182;4.474;2022-12-11T10:18:35;22.60;;;8.73;;
72611;SDS011;60655;52.182;4.474;2022-12-11T10:20:36;22.85;;;8.65;;
72611;SDS011;60655;52.182;4.474;2022-12-11T10:22:39;25.10;;;9.80;;
72611;SDS011;60655;52.182;4.474;2022-12-11T10:24:41;28.55;;;10.57;;
72611;SDS011;60655;52.182;4.474;2022-12-11T10:26:45;28.00;;;8.88;;
72611;SDS011;60655;52.182;4.474;2022-12-11T10:28:46;26.95;;;9.55;;
72611;SDS011;60655;52.182;4.474;2022-12-11T10:31:00;29.08;;;10.32;;
72611;SDS011;60655;52.182;4.474;2022-12-11T10:35:54;25.63;;;9.48;;
72611;SDS011;60655;52.182;4.474;2022-12-11T10:38:42;25.90;;;9.98;;
72611;SDS011;60655;52.182;4.474;2022-12-11T10:40:27;23.65;;;8.88;;
72611;SDS011;60655;52.182;4.474;2022-12-11T10:42:30;20.45;;;8.27;;
72611;SDS011;60655;52.182;4.474;2022-12-11T10:44:31;28.65;;;9.68;;
72611;SDS011;60655;52.182;4.474;2022-12-11T10:46:32;23.13;;;9.55;;
72611;SDS011;60655;52.182;4.474;2022-12-11T10:48:33;27.20;;;9.50;;
72611;SDS011;60655;52.182;4.474;2022-12-11T10:50:34;28.77;;;10.50;;
72611;SDS011;60655;52.182;4.474;2022-12-11T10:52:41;27.33;;;9.63;;
72611;SDS011;60655;52.182;4.474;2022-12-11T10:54:44;23.02;;;8.85;;
72611;SDS011;60655;52.182;4.474;2022-12-11T10:56:48;24.73;;;9.70;;
72611;SDS011;60655;52.182;4.474;2022-12-11T10:58:51;25.70;;;10.68;;
72611;SDS011;60655;52.182;4.474;2022-12-11T11:01:02;25.35;;;10.73;;
72611;SDS011;60655;52.182;4.474;2022-12-11T11:03:27;27.88;;;9.60;;
72611;SDS011;60655;52.182;4.474;2022-12-11T11:05:37;24.25;;;9.02;;
72611;SDS011;60655;52.182;4.474;2022-12-11T11:07:38;24.58;;;9.07;;
72611;SDS011;60655;52.182;4.474;2022-12-11T11:09:39;26.13;;;9.45;;
72611;SDS011;60655;52.182;4.474;2022-12-11T11:11:47;24.40;;;8.98;;
72611;SDS011;60655;52.182;4.474;2022-12-11T11:13:50;26.63;;;9.90;;
72611;SDS011;60655;52.182;4.474;2022-12-11T11:16:04;26.33;;;9.85;;
72611;SDS011;60655;52.182;4.474;2022-12-11T11:18:10;28.10;;;10.57;;
72611;SDS011;60655;52.182;4.474;2022-12-11T11:20:26;25.55;;;10.02;;
72611;SDS011;60655;52.182;4.474;2022-12-11T11:22:29;23.58;;;8.82;;
72611;SDS011;60655;52.182;4.474;2022-12-11T11:24:37;28.30;;;11.18;;
72611;SDS011;60655;52.182;4.474;2022-12-11T11:26:44;22.63;;;9.32;;
72611;SDS011;60655;52.182;4.474;2022-12-11T11:31:05;26.65;;;9.38;;
72611;SDS011;60655;52.182;4.474;2022-12-11T11:33:18;21.52;;;8.73;;
72611;SDS011;60655;52.182;4.474;2022-12-11T11:35:24;26.38;;;9.07;;
72611;SDS011;60655;52.182;4.474;2022-12-11T11:37:30;26.58;;;11.43;;
72611;SDS011;60655;52.182;4.474;2022-12-11T11:39:34;22.98;;;9.32;;
72611;SDS011;60655;52.182;4.474;2022-12-11T11:43:52;26.83;;;10.32;;
72611;SDS011;60655;52.182;4.474;2022-12-11T11:50:43;24.92;;;9.50;;
72611;SDS011;60655;52.182;4.474;2022-12-11T11:52:50;23.92;;;9.93;;
72611;SDS011;60655;52.182;4.474;2022-12-11T11:57:04;28.75;;;11.00;;
72611;SDS011;60655;52.182;4.474;2022-12-11T11:59:18;28.98;;;11.13;;
72611;SDS011;60655;52.182;4.474;2022-12-11T12:01:31;28.20;;;10.13;;
72611;SDS011;60655;52.182;4.474;2022-12-11T12:03:32;27.27;;;9.95;;
72611;SDS011;60655;52.182;4.474;2022-12-11T12:08:41;23.90;;;9.95;;
72611;SDS011;60655;52.182;4.474;2022-12-11T12:14:40;27.13;;;9.55;;
72611;SDS011;60655;52.182;4.474;2022-12-11T12:21:45;26.48;;;10.70;;
72611;SDS011;60655;52.182;4.474;2022-12-11T12:26:20;22.77;;;9.50;;
72611;SDS011;60655;52.182;4.474;2022-12-11T12:36:10;22.83;;;9.90;;
72611;SDS011;60655;52.182;4.474;2022-12-11T12:37:56;25.85;;;9.68;;
72611;SDS011;60655;52.182;4.474;2022-12-11T12:40:16;27.92;;;9.32;;
72611;SDS011;60655;52.182;4.474;2022-12-11T12:42:21;23.65;;;8.88;;
72611;SDS011;60655;52.182;4.474;2022-12-11T12:47:02;27.77;;;10.10;;
72611;SDS011;60655;52.182;4.474;2022-12-11T12:49:09;30.85;;;10.73;;
72611;SDS011;60655;52.182;4.474;2022-12-11T12:51:15;24.75;;;9.85;;
72611;SDS011;60655;52.182;4.474;2022-12-11T12:53:22;27.27;;;10.02;;
72611;SDS011;60655;52.182;4.474;2022-12-11T12:55:27;26.67;;;10.23;;
72611;SDS011;60655;52.182;4.474;2022-12-11T12:57:29;22.45;;;8.82;;
72611;SDS011;60655;52.182;4.474;2022-12-11T12:59:32;27.42;;;8.98;;
72611;SDS011;60655;52.182;4.474;2022-12-11T13:01:33;23.65;;;9.00;;
72611;SDS011;60655;52.182;4.474;2022-12-11T13:03:48;28.25;;;10.13;;
72611;SDS011;60655;52.182;4.474;2022-12-11T13:06:14;28.85;;;10.20;;
72611;SDS011;60655;52.182;4.474;2022-12-11T13:08:22;24.75;;;9.05;;
72611;SDS011;60655;52.182;4.474;2022-12-11T13:14:42;22.23;;;8.45;;
72611;SDS011;60655;52.182;4.474;2022-12-11T13:16:44;22.30;;;8.85;;
72611;SDS011;60655;52.182;4.474;2022-12-11T13:18:47;19.98;;;8.30;;
72611;SDS011;60655;52.182;4.474;2022-12-11T13:20:48;24.90;;;8.75;;
72611;SDS011;60655;52.182;4.474;2022-12-11T13:22:52;21.60;;;9.05;;
72611;SDS011;60655;52.182;4.474;2022-12-11T13:24:57;26.58;;;10.43;;
72611;SDS011;60655;52.182;4.474;2022-12-11T13:27:08;25.85;;;10.27;;
72611;SDS011;60655;52.182;4.474;2022-12-11T13:31:36;20.98;;;8.15;;
72611;SDS011;60655;52.182;4.474;2022-12-11T13:33:46;21.42;;;8.15;;
72611;SDS011;60655;52.182;4.474;2022-12-11T13:35:49;20.25;;;8.20;;
72611;SDS011;60655;52.182;4.474;2022-12-11T13:38:22;21.67;;;8.90;;
72611;SDS011;60655;52.182;4.474;2022-12-11T13:40:24;18.38;;;7.10;;
72611;SDS011;60655;52.182;4.474;2022-12-11T13:42:33;18.58;;;7.32;;
72611;SDS011;60655;52.182;4.474;2022-12-11T13:44:40;22.00;;;9.18;;
72611;SDS011;60655;52.182;4.474;2022-12-11T13:46:44;19.08;;;8.02;;
72611;SDS011;60655;52.182;4.474;2022-12-11T13:48:58;22.90;;;8.27;;
72611;SDS011;60655;52.182;4.474;2022-12-11T13:51:02;21.83;;;8.60;;
72611;SDS011;60655;52.182;4.474;2022-12-11T13:53:04;23.70;;;8.68;;
72611;SDS011;60655;52.182;4.474;2022-12-11T13:55:15;22.05;;;8.38;;
72611;SDS011;60655;52.182;4.474;2022-12-11T13:57:23;23.13;;;9.77;;
72611;SDS011;60655;52.182;4.474;2022-12-11T13:59:29;24.65;;;9.80;;
72611;SDS011;60655;52.182;4.474;2022-12-11T14:01:32;28.85;;;10.75;;
72611;SDS011;60655;52.182;4.474;2022-12-11T14:03:34;25.17;;;9.63;;
72611;SDS011;60655;52.182;4.474;2022-12-11T14:05:38;27.33;;;10.82;;
72611;SDS011;60655;52.182;4.474;2022-12-11T14:07:42;29.20;;;11.65;;